sensor_id;sensor_type;location;lat;lon;timestamp;temperature;humidity
42841;DHT22;28491;46.898;7.660;2023-02-16T00:01:40;2.20;4.90
42841;DHT22;28491;46.898;7.660;2023-02-16T00:04:25;2.00;5.70
42841;DHT22;28491;46.898;7.660;2023-02-16T00:06:52;1.90;8.50
42841;DHT22;28491;46.898;7.660;2023-02-16T00:09:18;1.80;11.70
42841;DHT22;28491;46.898;7.660;2023-02-16T00:11:45;1.80;11.20
42841;DHT22;28491;46.898;7.660;2023-02-16T00:14:29;1.60;11.50
42841;DHT22;28491;46.898;7.660;2023-02-16T00:16:56;1.40;13.20
42841;DHT22;28491;46.898;7.660;2023-02-16T00:19:25;1.40;16.70
42841;DHT22;28491;46.898;7.660;2023-02-16T00:21:53;1.50;15.70
42841;DHT22;28491;46.898;7.660;2023-02-16T00:24:20;1.60;14.30
42841;DHT22;28491;46.898;7.660;2023-02-16T00:26:46;1.50;14.70
42841;DHT22;28491;46.898;7.660;2023-02-16T00:31:41;1.60;15.10
42841;DHT22;28491;46.898;7.660;2023-02-16T00:34:32;1.60;13.90
42841;DHT22;28491;46.898;7.660;2023-02-16T00:37:01;1.50;12.70
42841;DHT22;28491;46.898;7.660;2023-02-16T00:39:28;1.40;15.80
42841;DHT22;28491;46.898;7.660;2023-02-16T00:41:56;1.40;15.40
42841;DHT22;28491;46.898;7.660;2023-02-16T00:44:32;1.40;15.80
42841;DHT22;28491;46.898;7.660;2023-02-16T00:47:24;1.50;17.00
42841;DHT22;28491;46.898;7.660;2023-02-16T00:49:53;1.50;16.30
42841;DHT22;28491;46.898;7.660;2023-02-16T00:54:59;1.30;15.10
42841;DHT22;28491;46.898;7.660;2023-02-16T00:57:26;1.40;17.10
42841;DHT22;28491;46.898;7.660;2023-02-16T01:00:14;1.40;15.10
42841;DHT22;28491;46.898;7.660;2023-02-16T01:02:43;1.30;15.00
42841;DHT22;28491;46.898;7.660;2023-02-16T01:05:09;1.20;14.60
42841;DHT22;28491;46.898;7.660;2023-02-16T01:07:35;1.20;16.00
42841;DHT22;28491;46.898;7.660;2023-02-16T01:10:19;1.10;19.60
42841;DHT22;28491;46.898;7.660;2023-02-16T01:13:04;1.10;18.80
42841;DHT22;28491;46.898;7.660;2023-02-16T01:15:30;1.20;18.10
42841;DHT22;28491;46.898;7.660;2023-02-16T01:17:56;1.40;16.60
42841;DHT22;28491;46.898;7.660;2023-02-16T01:20:23;1.60;11.10
42841;DHT22;28491;46.898;7.660;2023-02-16T01:22:49;1.90;8.20
42841;DHT22;28491;46.898;7.660;2023-02-16T01:25:15;1.80;3.40
42841;DHT22;28491;46.898;7.660;2023-02-16T01:27:41;1.80;5.50
42841;DHT22;28491;46.898;7.660;2023-02-16T01:30:13;1.70;5.50
42841;DHT22;28491;46.898;7.660;2023-02-16T01:32:39;1.60;6.60
42841;DHT22;28491;46.898;7.660;2023-02-16T01:35:05;1.70;6.20
42841;DHT22;28491;46.898;7.660;2023-02-16T01:37:30;1.60;5.40
42841;DHT22;28491;46.898;7.660;2023-02-16T01:39:56;1.60;7.90
42841;DHT22;28491;46.898;7.660;2023-02-16T01:44:58;1.60;9.10
42841;DHT22;28491;46.898;7.660;2023-02-16T01:47:31;1.70;7.90
42841;DHT22;28491;46.898;7.660;2023-02-16T01:49:58;1.60;7.80
42841;DHT22;28491;46.898;7.660;2023-02-16T01:52:35;1.60;9.60
42841;DHT22;28491;46.898;7.660;2023-02-16T01:55:16;1.50;9.90
42841;DHT22;28491;46.898;7.660;2023-02-16T01:57:49;1.30;12.20
42841;DHT22;28491;46.898;7.660;2023-02-16T02:03:10;1.50;12.50
42841;DHT22;28491;46.898;7.660;2023-02-16T02:05:55;1.80;9.10
42841;DHT22;28491;46.898;7.660;2023-02-16T02:11:08;1.60;3.90
42841;DHT22;28491;46.898;7.660;2023-02-16T02:13:46;1.70;4.80
42841;DHT22;28491;46.898;7.660;2023-02-16T02:16:19;1.80;2.30
42841;DHT22;28491;46.898;7.660;2023-02-16T02:18:46;1.80;1.00
42841;DHT22;28491;46.898;7.660;2023-02-16T02:33:16;1.80;1.00
42841;DHT22;28491;46.898;7.660;2023-02-16T02:41:36;1.60;6.90
42841;DHT22;28491;46.898;7.660;2023-02-16T02:44:23;1.80;3.50
42841;DHT22;28491;46.898;7.660;2023-02-16T02:46:52;2.00;1.00
42841;DHT22;28491;46.898;7.660;2023-02-16T02:49:17;1.90;1.00
42841;DHT22;28491;46.898;7.660;2023-02-16T02:51:43;1.80;1.00
42841;DHT22;28491;46.898;7.660;2023-02-16T02:54:20;1.60;1.00
42841;DHT22;28491;46.898;7.660;2023-02-16T02:57:22;1.30;4.10
42841;DHT22;28491;46.898;7.660;2023-02-16T03:00:24;1.10;2.30
42841;DHT22;28491;46.898;7.660;2023-02-16T03:03:30;1.10;9.20
42841;DHT22;28491;46.898;7.660;2023-02-16T03:06:22;1.20;7.70
42841;DHT22;28491;46.898;7.660;2023-02-16T03:08:53;1.20;7.70
42841;DHT22;28491;46.898;7.660;2023-02-16T03:11:23;1.00;7.70
42841;DHT22;28491;46.898;7.660;2023-02-16T03:16:43;1.20;10.30
42841;DHT22;28491;46.898;7.660;2023-02-16T03:19:12;1.10;10.40
42841;DHT22;28491;46.898;7.660;2023-02-16T03:21:57;1.20;9.40
42841;DHT22;28491;46.898;7.660;2023-02-16T03:24:42;1.30;8.00
42841;DHT22;28491;46.898;7.660;2023-02-16T03:27:30;1.40;5.10
42841;DHT22;28491;46.898;7.660;2023-02-16T03:30:15;1.50;2.20
42841;DHT22;28491;46.898;7.660;2023-02-16T03:32:43;1.40;1.00
42841;DHT22;28491;46.898;7.660;2023-02-16T03:35:09;1.40;1.00
42841;DHT22;28491;46.898;7.660;2023-02-16T03:37:37;1.30;4.00
42841;DHT22;28491;46.898;7.660;2023-02-16T03:40:06;1.50;3.40
42841;DHT22;28491;46.898;7.660;2023-02-16T03:42:51;1.60;1.50
42841;DHT22;28491;46.898;7.660;2023-02-16T03:45:20;1.50;1.00
42841;DHT22;28491;46.898;7.660;2023-02-16T03:47:46;1.40;1.00
42841;DHT22;28491;46.898;7.660;2023-02-16T03:50:12;1.50;1.00
42841;DHT22;28491;46.898;7.660;2023-02-16T03:52:37;1.40;1.00
42841;DHT22;28491;46.898;7.660;2023-02-16T03:55:03;1.30;3.10
42841;DHT22;28491;46.898;7.660;2023-02-16T03:57:29;1.20;4.20
42841;DHT22;28491;46.898;7.660;2023-02-16T03:59:54;1.20;6.20
42841;DHT22;28491;46.898;7.660;2023-02-16T04:02:20;1.20;5.50
42841;DHT22;28491;46.898;7.660;2023-02-16T04:04:46;1.40;4.10
42841;DHT22;28491;46.898;7.660;2023-02-16T04:07:12;1.40;1.00
42841;DHT22;28491;46.898;7.660;2023-02-16T04:09:37;1.30;1.00
42841;DHT22;28491;46.898;7.660;2023-02-16T04:12:03;1.00;2.20
42841;DHT22;28491;46.898;7.660;2023-02-16T04:14:47;0.90;6.80
42841;DHT22;28491;46.898;7.660;2023-02-16T04:17:13;0.90;6.10
42841;DHT22;28491;46.898;7.660;2023-02-16T04:19:38;1.00;6.20
42841;DHT22;28491;46.898;7.660;2023-02-16T04:22:04;1.00;4.50
42841;DHT22;28491;46.898;7.660;2023-02-16T04:24:30;1.10;3.20
42841;DHT22;28491;46.898;7.660;2023-02-16T04:26:55;1.10;1.90
42841;DHT22;28491;46.898;7.660;2023-02-16T04:29:21;1.00;1.00
42841;DHT22;28491;46.898;7.660;2023-02-16T04:31:46;1.00;2.60
42841;DHT22;28491;46.898;7.660;2023-02-16T04:34:12;1.10;1.60
42841;DHT22;28491;46.898;7.660;2023-02-16T04:36:37;0.90;1.00
42841;DHT22;28491;46.898;7.660;2023-02-16T04:39:03;0.80;2.50
42841;DHT22;28491;46.898;7.660;2023-02-16T04:41:29;0.40;1.00
42841;DHT22;28491;46.898;7.660;2023-02-16T04:43:54;0.40;5.40
42841;DHT22;28491;46.898;7.660;2023-02-16T04:46:20;0.40;5.20
42841;DHT22;28491;46.898;7.660;2023-02-16T04:48:45;0.50;5.60
42841;DHT22;28491;46.898;7.660;2023-02-16T04:51:11;0.60;5.50
42841;DHT22;28491;46.898;7.660;2023-02-16T04:53:36;0.60;7.30
42841;DHT22;28491;46.898;7.660;2023-02-16T04:56:02;0.60;7.50
42841;DHT22;28491;46.898;7.660;2023-02-16T04:58:28;0.70;11.40
42841;DHT22;28491;46.898;7.660;2023-02-16T05:00:53;0.50;11.80
42841;DHT22;28491;46.898;7.660;2023-02-16T05:03:19;0.30;12.30
42841;DHT22;28491;46.898;7.660;2023-02-16T05:05:45;-0.10;12.00
42841;DHT22;28491;46.898;7.660;2023-02-16T05:08:10;0.00;17.60
42841;DHT22;28491;46.898;7.660;2023-02-16T05:10:36;-0.10;16.50
42841;DHT22;28491;46.898;7.660;2023-02-16T05:13:01;-0.20;17.40
42841;DHT22;28491;46.898;7.660;2023-02-16T05:15:45;-0.10;17.90
42841;DHT22;28491;46.898;7.660;2023-02-16T05:18:11;0.10;16.80
42841;DHT22;28491;46.898;7.660;2023-02-16T05:20:37;0.10;15.00
42841;DHT22;28491;46.898;7.660;2023-02-16T05:23:21;0.10;13.10
42841;DHT22;28491;46.898;7.660;2023-02-16T05:25:46;0.20;13.40
42841;DHT22;28491;46.898;7.660;2023-02-16T05:28:12;0.30;11.50
42841;DHT22;28491;46.898;7.660;2023-02-16T05:30:37;0.30;8.20
42841;DHT22;28491;46.898;7.660;2023-02-16T05:33:03;0.10;10.50
42841;DHT22;28491;46.898;7.660;2023-02-16T05:35:28;0.10;12.90
42841;DHT22;28491;46.898;7.660;2023-02-16T05:37:54;0.00;10.70
42841;DHT22;28491;46.898;7.660;2023-02-16T05:40:19;0.00;11.60
42841;DHT22;28491;46.898;7.660;2023-02-16T05:42:45;0.00;14.30
42841;DHT22;28491;46.898;7.660;2023-02-16T05:45:10;-0.10;14.50
42841;DHT22;28491;46.898;7.660;2023-02-16T05:47:36;0.00;16.40
42841;DHT22;28491;46.898;7.660;2023-02-16T05:50:01;0.20;12.20
42841;DHT22;28491;46.898;7.660;2023-02-16T05:52:27;0.10;8.90
42841;DHT22;28491;46.898;7.660;2023-02-16T05:54:52;0.00;6.70
42841;DHT22;28491;46.898;7.660;2023-02-16T05:57:18;-0.10;10.40
42841;DHT22;28491;46.898;7.660;2023-02-16T05:59:43;-0.10;11.00
42841;DHT22;28491;46.898;7.660;2023-02-16T06:02:09;-0.10;10.40
42841;DHT22;28491;46.898;7.660;2023-02-16T06:04:34;0.00;8.80
42841;DHT22;28491;46.898;7.660;2023-02-16T06:07:00;0.10;7.10
42841;DHT22;28491;46.898;7.660;2023-02-16T06:09:26;0.20;2.00
42841;DHT22;28491;46.898;7.660;2023-02-16T06:11:51;0.30;1.80
42841;DHT22;28491;46.898;7.660;2023-02-16T06:14:19;0.40;1.00
42841;DHT22;28491;46.898;7.660;2023-02-16T06:16:47;0.40;1.00
42841;DHT22;28491;46.898;7.660;2023-02-16T06:19:14;0.50;1.50
42841;DHT22;28491;46.898;7.660;2023-02-16T06:21:40;0.50;1.60
42841;DHT22;28491;46.898;7.660;2023-02-16T06:24:07;0.50;2.80
42841;DHT22;28491;46.898;7.660;2023-02-16T06:26:33;0.40;1.00
42841;DHT22;28491;46.898;7.660;2023-02-16T06:28:59;0.40;2.40
42841;DHT22;28491;46.898;7.660;2023-02-16T06:31:25;0.50;1.50
42841;DHT22;28491;46.898;7.660;2023-02-16T06:33:51;0.40;1.00
42841;DHT22;28491;46.898;7.660;2023-02-16T06:36:17;0.20;3.60
42841;DHT22;28491;46.898;7.660;2023-02-16T06:38:43;0.10;6.40
42841;DHT22;28491;46.898;7.660;2023-02-16T06:41:10;0.00;8.40
42841;DHT22;28491;46.898;7.660;2023-02-16T06:43:36;0.00;7.00
42841;DHT22;28491;46.898;7.660;2023-02-16T06:46:02;-0.10;7.30
42841;DHT22;28491;46.898;7.660;2023-02-16T06:48:27;0.00;6.90
42841;DHT22;28491;46.898;7.660;2023-02-16T06:50:53;0.10;6.60
42841;DHT22;28491;46.898;7.660;2023-02-16T06:53:18;0.00;6.40
42841;DHT22;28491;46.898;7.660;2023-02-16T06:55:44;0.00;5.50
42841;DHT22;28491;46.898;7.660;2023-02-16T06:58:10;-0.10;5.40
42841;DHT22;28491;46.898;7.660;2023-02-16T07:00:36;-0.30;5.40
42841;DHT22;28491;46.898;7.660;2023-02-16T07:03:02;-0.20;8.20
42841;DHT22;28491;46.898;7.660;2023-02-16T07:05:27;-0.20;10.70
42841;DHT22;28491;46.898;7.660;2023-02-16T07:07:53;-0.10;10.80
42841;DHT22;28491;46.898;7.660;2023-02-16T07:10:19;-0.10;9.00
42841;DHT22;28491;46.898;7.660;2023-02-16T07:12:45;0.20;6.70
42841;DHT22;28491;46.898;7.660;2023-02-16T07:15:10;0.20;3.60
42841;DHT22;28491;46.898;7.660;2023-02-16T07:17:36;0.30;1.30
42841;DHT22;28491;46.898;7.660;2023-02-16T07:20:03;0.10;1.00
42841;DHT22;28491;46.898;7.660;2023-02-16T07:22:30;0.20;1.50
42841;DHT22;28491;46.898;7.660;2023-02-16T07:24:55;0.20;1.20
42841;DHT22;28491;46.898;7.660;2023-02-16T07:27:22;0.70;1.00
42841;DHT22;28491;46.898;7.660;2023-02-16T07:29:48;3.20;1.00
42841;DHT22;28491;46.898;7.660;2023-02-16T07:32:13;5.20;1.00
42841;DHT22;28491;46.898;7.660;2023-02-16T07:34:39;6.80;1.00
42841;DHT22;28491;46.898;7.660;2023-02-16T07:37:04;7.40;1.00
42841;DHT22;28491;46.898;7.660;2023-02-16T07:39:30;7.60;1.00
42841;DHT22;28491;46.898;7.660;2023-02-16T07:41:56;8.40;1.00
42841;DHT22;28491;46.898;7.660;2023-02-16T07:44:21;8.80;1.00
42841;DHT22;28491;46.898;7.660;2023-02-16T07:46:47;9.40;1.00
42841;DHT22;28491;46.898;7.660;2023-02-16T07:49:12;9.40;1.00
42841;DHT22;28491;46.898;7.660;2023-02-16T07:51:38;9.60;1.00
42841;DHT22;28491;46.898;7.660;2023-02-16T07:54:05;10.30;1.00
42841;DHT22;28491;46.898;7.660;2023-02-16T07:56:32;10.80;1.00
42841;DHT22;28491;46.898;7.660;2023-02-16T07:58:59;11.90;1.00
42841;DHT22;28491;46.898;7.660;2023-02-16T08:01:26;12.10;1.00
42841;DHT22;28491;46.898;7.660;2023-02-16T08:03:52;11.90;1.00
42841;DHT22;28491;46.898;7.660;2023-02-16T08:06:18;11.70;1.00
42841;DHT22;28491;46.898;7.660;2023-02-16T08:08:44;11.30;1.00
42841;DHT22;28491;46.898;7.660;2023-02-16T08:11:12;11.60;1.00
42841;DHT22;28491;46.898;7.660;2023-02-16T08:13:38;11.70;1.00
42841;DHT22;28491;46.898;7.660;2023-02-16T08:16:12;12.10;1.00
42841;DHT22;28491;46.898;7.660;2023-02-16T08:18:38;11.70;1.00
42841;DHT22;28491;46.898;7.660;2023-02-16T08:21:32;12.40;1.00
42841;DHT22;28491;46.898;7.660;2023-02-16T08:24:00;13.20;1.00
42841;DHT22;28491;46.898;7.660;2023-02-16T08:26:36;13.90;1.00
42841;DHT22;28491;46.898;7.660;2023-02-16T08:29:04;14.00;1.00
42841;DHT22;28491;46.898;7.660;2023-02-16T08:31:33;15.00;1.00
42841;DHT22;28491;46.898;7.660;2023-02-16T08:34:00;15.40;1.00
42841;DHT22;28491;46.898;7.660;2023-02-16T08:36:29;14.80;1.00
42841;DHT22;28491;46.898;7.660;2023-02-16T08:38:57;14.80;1.00
42841;DHT22;28491;46.898;7.660;2023-02-16T08:41:28;14.30;1.00
42841;DHT22;28491;46.898;7.660;2023-02-16T08:43:54;15.50;1.00
42841;DHT22;28491;46.898;7.660;2023-02-16T08:46:20;16.00;1.00
42841;DHT22;28491;46.898;7.660;2023-02-16T08:48:47;14.90;1.00
42841;DHT22;28491;46.898;7.660;2023-02-16T08:51:18;14.90;1.00
42841;DHT22;28491;46.898;7.660;2023-02-16T08:53:45;14.20;1.00
42841;DHT22;28491;46.898;7.660;2023-02-16T08:56:11;13.80;1.00
42841;DHT22;28491;46.898;7.660;2023-02-16T08:58:37;14.80;1.00
42841;DHT22;28491;46.898;7.660;2023-02-16T09:01:04;15.10;1.00
42841;DHT22;28491;46.898;7.660;2023-02-16T09:03:30;15.70;1.00
42841;DHT22;28491;46.898;7.660;2023-02-16T09:06:00;15.90;1.00
42841;DHT22;28491;46.898;7.660;2023-02-16T09:08:26;15.20;1.00
42841;DHT22;28491;46.898;7.660;2023-02-16T09:10:53;14.80;1.00
42841;DHT22;28491;46.898;7.660;2023-02-16T09:13:18;15.10;1.00
42841;DHT22;28491;46.898;7.660;2023-02-16T09:15:44;15.40;1.00
42841;DHT22;28491;46.898;7.660;2023-02-16T09:18:10;15.70;1.00
42841;DHT22;28491;46.898;7.660;2023-02-16T09:20:41;15.30;1.00
42841;DHT22;28491;46.898;7.660;2023-02-16T09:23:08;16.20;1.00
42841;DHT22;28491;46.898;7.660;2023-02-16T09:25:36;16.90;1.00
42841;DHT22;28491;46.898;7.660;2023-02-16T09:28:02;17.00;1.00
42841;DHT22;28491;46.898;7.660;2023-02-16T09:30:28;17.10;1.00
42841;DHT22;28491;46.898;7.660;2023-02-16T09:32:54;17.20;1.00
42841;DHT22;28491;46.898;7.660;2023-02-16T09:35:20;17.20;1.00
42841;DHT22;28491;46.898;7.660;2023-02-16T09:37:46;16.80;1.00
42841;DHT22;28491;46.898;7.660;2023-02-16T09:40:12;17.00;1.00
42841;DHT22;28491;46.898;7.660;2023-02-16T09:45:24;16.50;1.00
42841;DHT22;28491;46.898;7.660;2023-02-16T09:47:51;16.40;1.00
42841;DHT22;28491;46.898;7.660;2023-02-16T09:50:25;15.90;1.00
42841;DHT22;28491;46.898;7.660;2023-02-16T09:55:32;15.40;1.00
42841;DHT22;28491;46.898;7.660;2023-02-16T10:08:20;13.10;1.00
42841;DHT22;28491;46.898;7.660;2023-02-16T10:10:55;13.40;1.00
42841;DHT22;28491;46.898;7.660;2023-02-16T10:13:33;13.50;1.00
42841;DHT22;28491;46.898;7.660;2023-02-16T10:16:01;13.40;1.00
42841;DHT22;28491;46.898;7.660;2023-02-16T10:18:32;13.60;1.00
42841;DHT22;28491;46.898;7.660;2023-02-16T10:21:02;13.60;1.00
42841;DHT22;28491;46.898;7.660;2023-02-16T10:28:48;13.90;1.00
42841;DHT22;28491;46.898;7.660;2023-02-16T10:34:20;14.10;1.00
42841;DHT22;28491;46.898;7.660;2023-02-16T10:39:38;13.90;1.00
42841;DHT22;28491;46.898;7.660;2023-02-16T10:42:24;13.80;1.00
42841;DHT22;28491;46.898;7.660;2023-02-16T10:45:01;14.10;1.00
42841;DHT22;28491;46.898;7.660;2023-02-16T10:47:37;14.30;1.00
42841;DHT22;28491;46.898;7.660;2023-02-16T10:50:05;14.40;1.00
42841;DHT22;28491;46.898;7.660;2023-02-16T10:52:35;14.30;1.00
42841;DHT22;28491;46.898;7.660;2023-02-16T10:55:02;14.40;1.00
42841;DHT22;28491;46.898;7.660;2023-02-16T10:57:30;14.30;1.00
42841;DHT22;28491;46.898;7.660;2023-02-16T10:59:58;14.40;1.00
42841;DHT22;28491;46.898;7.660;2023-02-16T11:02:37;14.60;1.00
42841;DHT22;28491;46.898;7.660;2023-02-16T11:05:32;14.70;1.00
42841;DHT22;28491;46.898;7.660;2023-02-16T11:07:59;14.60;1.00
42841;DHT22;28491;46.898;7.660;2023-02-16T11:10:46;14.60;1.00
42841;DHT22;28491;46.898;7.660;2023-02-16T11:13:24;14.60;1.00
42841;DHT22;28491;46.898;7.660;2023-02-16T11:15:54;14.70;1.00
42841;DHT22;28491;46.898;7.660;2023-02-16T11:18:31;14.80;1.00
42841;DHT22;28491;46.898;7.660;2023-02-16T11:20:58;15.00;1.00
42841;DHT22;28491;46.898;7.660;2023-02-16T11:23:26;15.00;1.00
42841;DHT22;28491;46.898;7.660;2023-02-16T11:31:45;15.20;1.00
42841;DHT22;28491;46.898;7.660;2023-02-16T11:36:41;15.40;1.00
42841;DHT22;28491;46.898;7.660;2023-02-16T11:42:05;15.30;1.00
42841;DHT22;28491;46.898;7.660;2023-02-16T11:44:34;15.40;1.00
42841;DHT22;28491;46.898;7.660;2023-02-16T11:47:22;15.50;1.00
42841;DHT22;28491;46.898;7.660;2023-02-16T11:50:54;15.50;1.00
42841;DHT22;28491;46.898;7.660;2023-02-16T11:52:56;15.40;1.00
42841;DHT22;28491;46.898;7.660;2023-02-16T11:57:51;15.40;1.00
42841;DHT22;28491;46.898;7.660;2023-02-16T12:00:19;15.30;1.00
42841;DHT22;28491;46.898;7.660;2023-02-16T12:03:14;15.20;1.00
42841;DHT22;28491;46.898;7.660;2023-02-16T12:06:00;15.10;1.00
42841;DHT22;28491;46.898;7.660;2023-02-16T12:12:11;15.20;1.00
42841;DHT22;28491;46.898;7.660;2023-02-16T12:14:09;15.30;1.00
42841;DHT22;28491;46.898;7.660;2023-02-16T12:19:40;15.10;1.00
42841;DHT22;28491;46.898;7.660;2023-02-16T12:22:23;15.20;1.00
42841;DHT22;28491;46.898;7.660;2023-02-16T12:27:40;14.70;1.00
42841;DHT22;28491;46.898;7.660;2023-02-16T12:38:30;14.50;1.00
42841;DHT22;28491;46.898;7.660;2023-02-16T12:43:51;14.80;1.00
42841;DHT22;28491;46.898;7.660;2023-02-16T12:46:54;15.20;1.00
42841;DHT22;28491;46.898;7.660;2023-02-16T12:49:29;15.10;1.00
42841;DHT22;28491;46.898;7.660;2023-02-16T12:55:07;14.90;1.00
42841;DHT22;28491;46.898;7.660;2023-02-16T12:57:35;14.80;1.00
42841;DHT22;28491;46.898;7.660;2023-02-16T13:00:38;14.10;1.00
42841;DHT22;28491;46.898;7.660;2023-02-16T13:03:39;14.30;1.00
42841;DHT22;28491;46.898;7.660;2023-02-16T13:06:23;14.70;1.00
42841;DHT22;28491;46.898;7.660;2023-02-16T13:11:48;14.00;1.00
42841;DHT22;28491;46.898;7.660;2023-02-16T13:14:31;14.50;1.00
42841;DHT22;28491;46.898;7.660;2023-02-16T13:17:07;14.50;1.00
42841;DHT22;28491;46.898;7.660;2023-02-16T13:19:35;14.50;1.00
42841;DHT22;28491;46.898;7.660;2023-02-16T13:22:20;14.70;1.00
42841;DHT22;28491;46.898;7.660;2023-02-16T13:34:03;14.80;1.00
42841;DHT22;28491;46.898;7.660;2023-02-16T13:42:37;15.10;1.00
42841;DHT22;28491;46.898;7.660;2023-02-16T13:45:17;15.10;1.00
42841;DHT22;28491;46.898;7.660;2023-02-16T13:47:44;14.90;1.00
42841;DHT22;28491;46.898;7.660;2023-02-16T13:50:30;15.20;1.00
42841;DHT22;28491;46.898;7.660;2023-02-16T13:53:14;15.30;1.00
42841;DHT22;28491;46.898;7.660;2023-02-16T13:55:41;15.20;1.00
42841;DHT22;28491;46.898;7.660;2023-02-16T14:00:48;15.40;1.00
42841;DHT22;28491;46.898;7.660;2023-02-16T14:05:46;15.40;1.00
42841;DHT22;28491;46.898;7.660;2023-02-16T14:08:22;15.40;1.00
42841;DHT22;28491;46.898;7.660;2023-02-16T14:13:20;15.10;1.00
42841;DHT22;28491;46.898;7.660;2023-02-16T14:15:51;14.90;1.00
42841;DHT22;28491;46.898;7.660;2023-02-16T14:18:32;15.20;1.00
42841;DHT22;28491;46.898;7.660;2023-02-16T14:21:05;15.00;1.00
42841;DHT22;28491;46.898;7.660;2023-02-16T14:23:32;14.90;1.00
42841;DHT22;28491;46.898;7.660;2023-02-16T14:26:03;14.60;1.00
42841;DHT22;28491;46.898;7.660;2023-02-16T14:31:17;14.70;1.00
42841;DHT22;28491;46.898;7.660;2023-02-16T14:33:54;14.40;1.00
42841;DHT22;28491;46.898;7.660;2023-02-16T14:36:24;14.40;1.00
42841;DHT22;28491;46.898;7.660;2023-02-16T14:38:53;14.70;1.00
42841;DHT22;28491;46.898;7.660;2023-02-16T14:44:17;14.50;1.00
42841;DHT22;28491;46.898;7.660;2023-02-16T14:49:28;14.50;1.00
42841;DHT22;28491;46.898;7.660;2023-02-16T14:55:06;14.60;1.00
42841;DHT22;28491;46.898;7.660;2023-02-16T14:58:01;14.60;1.00
42841;DHT22;28491;46.898;7.660;2023-02-16T15:00:42;14.60;1.00
42841;DHT22;28491;46.898;7.660;2023-02-16T15:03:17;14.30;1.00
42841;DHT22;28491;46.898;7.660;2023-02-16T15:05:50;14.40;1.00
42841;DHT22;28491;46.898;7.660;2023-02-16T15:08:20;14.20;1.00
42841;DHT22;28491;46.898;7.660;2023-02-16T15:10:47;14.00;1.00
42841;DHT22;28491;46.898;7.660;2023-02-16T15:13:25;13.70;1.00
42841;DHT22;28491;46.898;7.660;2023-02-16T15:15:54;13.70;1.00
42841;DHT22;28491;46.898;7.660;2023-02-16T15:18:28;13.80;1.00
42841;DHT22;28491;46.898;7.660;2023-02-16T15:20:55;13.70;1.00
42841;DHT22;28491;46.898;7.660;2023-02-16T15:23:29;13.70;1.00
42841;DHT22;28491;46.898;7.660;2023-02-16T15:28:35;13.60;1.00
42841;DHT22;28491;46.898;7.660;2023-02-16T15:31:13;13.70;1.00
42841;DHT22;28491;46.898;7.660;2023-02-16T15:33:43;13.70;1.00
42841;DHT22;28491;46.898;7.660;2023-02-16T15:36:18;13.70;1.00
42841;DHT22;28491;46.898;7.660;2023-02-16T15:38:55;13.60;1.00
42841;DHT22;28491;46.898;7.660;2023-02-16T15:41:29;13.40;1.00
42841;DHT22;28491;46.898;7.660;2023-02-16T15:43:56;13.20;1.00
42841;DHT22;28491;46.898;7.660;2023-02-16T15:48:54;12.90;1.00
42841;DHT22;28491;46.898;7.660;2023-02-16T15:51:28;12.70;1.00
42841;DHT22;28491;46.898;7.660;2023-02-16T15:54:01;12.40;1.00
42841;DHT22;28491;46.898;7.660;2023-02-16T15:56:39;12.20;1.00
42841;DHT22;28491;46.898;7.660;2023-02-16T15:59:34;12.00;1.00
42841;DHT22;28491;46.898;7.660;2023-02-16T16:02:15;12.00;1.00
42841;DHT22;28491;46.898;7.660;2023-02-16T16:04:50;11.80;1.00
42841;DHT22;28491;46.898;7.660;2023-02-16T16:07:33;11.60;1.00
42841;DHT22;28491;46.898;7.660;2023-02-16T16:10:01;11.60;1.00
42841;DHT22;28491;46.898;7.660;2023-02-16T16:12:27;11.50;1.00
42841;DHT22;28491;46.898;7.660;2023-02-16T16:14:57;11.20;1.00
42841;DHT22;28491;46.898;7.660;2023-02-16T16:17:27;11.10;1.00
42841;DHT22;28491;46.898;7.660;2023-02-16T16:19:55;11.20;1.00
42841;DHT22;28491;46.898;7.660;2023-02-16T16:22:38;11.00;1.00
42841;DHT22;28491;46.898;7.660;2023-02-16T16:28:04;10.70;1.00
42841;DHT22;28491;46.898;7.660;2023-02-16T16:30:33;10.40;1.00
42841;DHT22;28491;46.898;7.660;2023-02-16T16:33:08;10.20;1.00
42841;DHT22;28491;46.898;7.660;2023-02-16T16:35:45;10.00;1.00
42841;DHT22;28491;46.898;7.660;2023-02-16T16:38:27;10.10;1.00
42841;DHT22;28491;46.898;7.660;2023-02-16T16:40:56;10.00;1.00
42841;DHT22;28491;46.898;7.660;2023-02-16T16:43:28;10.00;1.00
42841;DHT22;28491;46.898;7.660;2023-02-16T16:46:09;10.00;1.00
42841;DHT22;28491;46.898;7.660;2023-02-16T16:48:36;9.90;1.00
42841;DHT22;28491;46.898;7.660;2023-02-16T16:51:17;9.90;1.00
42841;DHT22;28491;46.898;7.660;2023-02-16T16:56:17;9.40;1.00
42841;DHT22;28491;46.898;7.660;2023-02-16T16:58:50;9.50;1.00
42841;DHT22;28491;46.898;7.660;2023-02-16T17:01:17;9.50;1.00
42841;DHT22;28491;46.898;7.660;2023-02-16T17:03:42;9.40;1.00
42841;DHT22;28491;46.898;7.660;2023-02-16T17:06:09;9.60;1.00
42841;DHT22;28491;46.898;7.660;2023-02-16T17:08:35;9.40;1.00
42841;DHT22;28491;46.898;7.660;2023-02-16T17:11:02;9.20;1.00
42841;DHT22;28491;46.898;7.660;2023-02-16T17:13:27;9.10;1.00
42841;DHT22;28491;46.898;7.660;2023-02-16T17:15:58;9.00;1.00
42841;DHT22;28491;46.898;7.660;2023-02-16T17:18:25;8.80;1.00
42841;DHT22;28491;46.898;7.660;2023-02-16T17:20:50;8.70;1.00
42841;DHT22;28491;46.898;7.660;2023-02-16T17:23:18;8.70;1.00
42841;DHT22;28491;46.898;7.660;2023-02-16T17:25:44;8.70;1.00
42841;DHT22;28491;46.898;7.660;2023-02-16T17:28:11;8.80;1.00
42841;DHT22;28491;46.898;7.660;2023-02-16T17:30:38;8.70;1.00
42841;DHT22;28491;46.898;7.660;2023-02-16T17:33:03;8.60;1.00
42841;DHT22;28491;46.898;7.660;2023-02-16T17:35:30;8.50;1.00
42841;DHT22;28491;46.898;7.660;2023-02-16T17:37:56;8.40;1.00
42841;DHT22;28491;46.898;7.660;2023-02-16T17:40:24;8.30;1.00
42841;DHT22;28491;46.898;7.660;2023-02-16T17:42:50;8.30;1.00
42841;DHT22;28491;46.898;7.660;2023-02-16T17:45:18;8.10;1.00
42841;DHT22;28491;46.898;7.660;2023-02-16T17:47:45;7.90;1.00
42841;DHT22;28491;46.898;7.660;2023-02-16T17:50:14;7.70;1.00
42841;DHT22;28491;46.898;7.660;2023-02-16T17:52:41;7.70;1.00
42841;DHT22;28491;46.898;7.660;2023-02-16T17:55:07;7.80;1.00
42841;DHT22;28491;46.898;7.660;2023-02-16T17:57:33;7.80;1.00
42841;DHT22;28491;46.898;7.660;2023-02-16T17:59:59;7.90;1.00
42841;DHT22;28491;46.898;7.660;2023-02-16T18:02:25;8.10;1.00
42841;DHT22;28491;46.898;7.660;2023-02-16T18:04:50;8.20;1.00
42841;DHT22;28491;46.898;7.660;2023-02-16T18:07:17;8.30;1.00
42841;DHT22;28491;46.898;7.660;2023-02-16T18:09:46;8.30;1.00
42841;DHT22;28491;46.898;7.660;2023-02-16T18:12:12;8.20;1.00
42841;DHT22;28491;46.898;7.660;2023-02-16T18:14:38;7.90;1.00
42841;DHT22;28491;46.898;7.660;2023-02-16T18:17:04;7.50;1.00
42841;DHT22;28491;46.898;7.660;2023-02-16T18:19:31;7.40;1.00
42841;DHT22;28491;46.898;7.660;2023-02-16T18:21:58;7.40;1.00
42841;DHT22;28491;46.898;7.660;2023-02-16T18:24:23;7.30;1.00
42841;DHT22;28491;46.898;7.660;2023-02-16T18:26:49;7.30;1.00
42841;DHT22;28491;46.898;7.660;2023-02-16T18:29:16;7.40;1.00
42841;DHT22;28491;46.898;7.660;2023-02-16T18:31:42;7.30;1.00
42841;DHT22;28491;46.898;7.660;2023-02-16T18:34:08;7.10;1.00
42841;DHT22;28491;46.898;7.660;2023-02-16T18:36:35;7.20;1.00
42841;DHT22;28491;46.898;7.660;2023-02-16T18:39:01;7.30;1.00